sensor_id;sensor_type;location;lat;lon;timestamp;pressure;altitude;pressure_sealevel;temperature;humidity
57594;BME280;43423;46.510;6.686;2023-04-23T00:00:04;96093.72;;;11.07;93.47
57594;BME280;43423;46.510;6.686;2023-04-23T00:02:52;96095.88;;;10.98;96.19
57594;BME280;43423;46.510;6.686;2023-04-23T00:05:19;96095.69;;;11.01;96.20
57594;BME280;43423;46.510;6.686;2023-04-23T00:07:45;96089.47;;;11.06;94.66
57594;BME280;43423;46.510;6.686;2023-04-23T00:10:11;96086.66;;;11.01;95.54
57594;BME280;43423;46.510;6.686;2023-04-23T00:12:37;96086.41;;;10.99;96.11
57594;BME280;43423;46.510;6.686;2023-04-23T00:15:04;96083.41;;;11.02;96.12
57594;BME280;43423;46.510;6.686;2023-04-23T00:17:31;96073.16;;;11.03;96.10
57594;BME280;43423;46.510;6.686;2023-04-23T00:19:57;96073.63;;;10.96;96.34
57594;BME280;43423;46.510;6.686;2023-04-23T00:22:23;96074.91;;;11.00;95.27
57594;BME280;43423;46.510;6.686;2023-04-23T00:24:48;96076.59;;;10.92;95.81
57594;BME280;43423;46.510;6.686;2023-04-23T00:27:14;96083.13;;;10.95;95.51
57594;BME280;43423;46.510;6.686;2023-04-23T00:29:40;96078.88;;;10.94;96.74
57594;BME280;43423;46.510;6.686;2023-04-23T00:32:05;96080.13;;;10.93;96.39
57594;BME280;43423;46.510;6.686;2023-04-23T00:34:31;96076.91;;;11.00;95.76
57594;BME280;43423;46.510;6.686;2023-04-23T00:36:57;96073.31;;;10.88;96.49
57594;BME280;43423;46.510;6.686;2023-04-23T00:39:23;96075.13;;;10.97;95.79
57594;BME280;43423;46.510;6.686;2023-04-23T00:41:49;96077.41;;;10.98;95.51
57594;BME280;43423;46.510;6.686;2023-04-23T00:44:14;96066.88;;;10.97;95.05
57594;BME280;43423;46.510;6.686;2023-04-23T00:46:41;96074.63;;;10.93;96.03
57594;BME280;43423;46.510;6.686;2023-04-23T00:49:07;96071.59;;;10.90;96.38
57594;BME280;43423;46.510;6.686;2023-04-23T00:51:33;96066.25;;;10.81;97.12
57594;BME280;43423;46.510;6.686;2023-04-23T00:53:58;96081.56;;;10.88;96.37
57594;BME280;43423;46.510;6.686;2023-04-23T00:56:25;96091.63;;;10.97;95.41
57594;BME280;43423;46.510;6.686;2023-04-23T00:58:51;96089.16;;;10.99;95.83
57594;BME280;43423;46.510;6.686;2023-04-23T01:01:18;96089.16;;;10.99;96.43
57594;BME280;43423;46.510;6.686;2023-04-23T01:03:47;96094.81;;;10.89;96.42
57594;BME280;43423;46.510;6.686;2023-04-23T01:06:14;96084.81;;;10.86;98.25
57594;BME280;43423;46.510;6.686;2023-04-23T01:08:42;96080.75;;;10.76;99.83
57594;BME280;43423;46.510;6.686;2023-04-23T01:11:08;96078.00;;;10.76;100.00
57594;BME280;43423;46.510;6.686;2023-04-23T01:13:34;96069.66;;;10.65;100.00
57594;BME280;43423;46.510;6.686;2023-04-23T01:16:00;96078.13;;;10.61;100.00
57594;BME280;43423;46.510;6.686;2023-04-23T01:18:26;96067.66;;;10.66;100.00
57594;BME280;43423;46.510;6.686;2023-04-23T01:20:52;96067.19;;;10.67;100.00
57594;BME280;43423;46.510;6.686;2023-04-23T01:23:18;96071.44;;;10.68;100.00
57594;BME280;43423;46.510;6.686;2023-04-23T01:25:44;96063.41;;;10.65;100.00
57594;BME280;43423;46.510;6.686;2023-04-23T01:28:10;96063.69;;;10.72;100.00
57594;BME280;43423;46.510;6.686;2023-04-23T01:30:38;96064.69;;;10.69;100.00
57594;BME280;43423;46.510;6.686;2023-04-23T01:33:04;96065.44;;;10.70;100.00
57594;BME280;43423;46.510;6.686;2023-04-23T01:35:31;96073.47;;;10.73;100.00
57594;BME280;43423;46.510;6.686;2023-04-23T01:37:58;96078.19;;;10.73;100.00
57594;BME280;43423;46.510;6.686;2023-04-23T01:40:26;96062.91;;;10.66;100.00
57594;BME280;43423;46.510;6.686;2023-04-23T01:42:51;96061.41;;;10.65;100.00
57594;BME280;43423;46.510;6.686;2023-04-23T01:45:17;96059.91;;;10.64;100.00
57594;BME280;43423;46.510;6.686;2023-04-23T01:47:46;96063.63;;;10.61;100.00
57594;BME280;43423;46.510;6.686;2023-04-23T01:50:12;96056.06;;;10.56;100.00
57594;BME280;43423;46.510;6.686;2023-04-23T01:52:38;96058.81;;;10.56;100.00
57594;BME280;43423;46.510;6.686;2023-04-23T01:55:04;96053.88;;;10.60;100.00
57594;BME280;43423;46.510;6.686;2023-04-23T01:57:29;96050.59;;;10.56;100.00
57594;BME280;43423;46.510;6.686;2023-04-23T02:00:02;96059.06;;;10.52;100.00
57594;BME280;43423;46.510;6.686;2023-04-23T02:02:33;96048.31;;;10.54;100.00
57594;BME280;43423;46.510;6.686;2023-04-23T02:05:00;96057.69;;;10.37;100.00
57594;BME280;43423;46.510;6.686;2023-04-23T02:07:30;96058.69;;;10.39;100.00
57594;BME280;43423;46.510;6.686;2023-04-23T02:09:56;96055.50;;;10.46;100.00
57594;BME280;43423;46.510;6.686;2023-04-23T02:12:22;96054.25;;;10.47;100.00
57594;BME280;43423;46.510;6.686;2023-04-23T02:14:47;96057.19;;;10.38;100.00
57594;BME280;43423;46.510;6.686;2023-04-23T02:17:13;96052.19;;;10.37;100.00
57594;BME280;43423;46.510;6.686;2023-04-23T02:19:39;96050.94;;;10.38;100.00
57594;BME280;43423;46.510;6.686;2023-04-23T02:22:05;96047.22;;;10.41;100.00
57594;BME280;43423;46.510;6.686;2023-04-23T02:24:32;96047.97;;;10.41;100.00
57594;BME280;43423;46.510;6.686;2023-04-23T02:26:58;96043.13;;;10.30;100.00
57594;BME280;43423;46.510;6.686;2023-04-23T02:29:23;96041.38;;;10.27;100.00
57594;BME280;43423;46.510;6.686;2023-04-23T02:31:49;96044.72;;;10.17;100.00
57594;BME280;43423;46.510;6.686;2023-04-23T02:34:15;96041.97;;;10.17;100.00
57594;BME280;43423;46.510;6.686;2023-04-23T02:36:40;96040.53;;;10.21;100.00
57594;BME280;43423;46.510;6.686;2023-04-23T02:39:06;96031.25;;;10.19;100.00
57594;BME280;43423;46.510;6.686;2023-04-23T02:41:32;96028.72;;;10.15;100.00
57594;BME280;43423;46.510;6.686;2023-04-23T02:43:57;96019.25;;;10.16;100.00
57594;BME280;43423;46.510;6.686;2023-04-23T02:46:23;96015.81;;;10.21;100.00
57594;BME280;43423;46.510;6.686;2023-04-23T02:48:49;96006.34;;;10.22;100.00
57594;BME280;43423;46.510;6.686;2023-04-23T02:51:14;96006.34;;;10.22;100.00
57594;BME280;43423;46.510;6.686;2023-04-23T02:53:40;96001.81;;;10.19;100.00
57594;BME280;43423;46.510;6.686;2023-04-23T02:56:05;96011.19;;;10.07;100.00
57594;BME280;43423;46.510;6.686;2023-04-23T02:58:31;96016.22;;;10.14;100.00
57594;BME280;43423;46.510;6.686;2023-04-23T03:00:57;96008.25;;;10.16;100.00
57594;BME280;43423;46.510;6.686;2023-04-23T03:03:24;96009.50;;;10.15;100.00
57594;BME280;43423;46.510;6.686;2023-04-23T03:05:51;96011.56;;;10.20;100.00
57594;BME280;43423;46.510;6.686;2023-04-23T03:08:17;96003.41;;;10.05;100.00
57594;BME280;43423;46.510;6.686;2023-04-23T03:10:42;96004.69;;;10.10;100.00
57594;BME280;43423;46.510;6.686;2023-04-23T03:13:08;96006.50;;;10.13;100.00
57594;BME280;43423;46.510;6.686;2023-04-23T03:15:33;95999.81;;;10.20;100.00
57594;BME280;43423;46.510;6.686;2023-04-23T03:17:59;96006.41;;;10.28;100.00
57594;BME280;43423;46.510;6.686;2023-04-23T03:20:26;96006.91;;;10.32;100.00
57594;BME280;43423;46.510;6.686;2023-04-23T03:22:52;96001.16;;;10.30;100.00
57594;BME280;43423;46.510;6.686;2023-04-23T03:25:18;96002.16;;;10.32;99.74
57594;BME280;43423;46.510;6.686;2023-04-23T03:27:45;96001.22;;;10.36;100.00
57594;BME280;43423;46.510;6.686;2023-04-23T03:30:10;96004.41;;;10.28;99.64
57594;BME280;43423;46.510;6.686;2023-04-23T03:32:37;95998.34;;;10.24;100.00
57594;BME280;43423;46.510;6.686;2023-04-23T03:35:03;95992.53;;;10.17;100.00
57594;BME280;43423;46.510;6.686;2023-04-23T03:37:28;95990.00;;;10.13;100.00
57594;BME280;43423;46.510;6.686;2023-04-23T03:39:54;96005.75;;;10.13;100.00
57594;BME280;43423;46.510;6.686;2023-04-23T03:42:20;96001.50;;;10.17;100.00
57594;BME280;43423;46.510;6.686;2023-04-23T03:44:45;96002.81;;;10.22;100.00
57594;BME280;43423;46.510;6.686;2023-04-23T03:47:11;96002.41;;;10.29;100.00
57594;BME280;43423;46.510;6.686;2023-04-23T03:49:36;95998.47;;;10.36;100.00
57594;BME280;43423;46.510;6.686;2023-04-23T03:52:02;95999.47;;;10.38;100.00
57594;BME280;43423;46.510;6.686;2023-04-23T03:54:28;96004.72;;;10.36;100.00
57594;BME280;43423;46.510;6.686;2023-04-23T03:56:54;95994.47;;;10.37;100.00
57594;BME280;43423;46.510;6.686;2023-04-23T03:59:19;95995.22;;;10.37;100.00
57594;BME280;43423;46.510;6.686;2023-04-23T04:01:46;95994.25;;;10.40;100.00
57594;BME280;43423;46.510;6.686;2023-04-23T04:04:13;95990.97;;;10.36;100.00
57594;BME280;43423;46.510;6.686;2023-04-23T04:06:39;95984.44;;;10.33;100.00
57594;BME280;43423;46.510;6.686;2023-04-23T04:09:05;95976.94;;;10.28;100.00
57594;BME280;43423;46.510;6.686;2023-04-23T04:11:32;95990.91;;;10.30;100.00
57594;BME280;43423;46.510;6.686;2023-04-23T04:13:58;95985.94;;;10.34;100.00
57594;BME280;43423;46.510;6.686;2023-04-23T04:16:24;95991.72;;;10.37;100.00
57594;BME280;43423;46.510;6.686;2023-04-23T04:18:50;95985.44;;;10.30;100.00
57594;BME280;43423;46.510;6.686;2023-04-23T04:21:16;95987.63;;;10.26;100.00
57594;BME280;43423;46.510;6.686;2023-04-23T04:23:44;95970.88;;;10.24;100.00
57594;BME280;43423;46.510;6.686;2023-04-23T04:26:09;95976.13;;;10.22;100.00
57594;BME280;43423;46.510;6.686;2023-04-23T04:28:35;95975.41;;;10.27;100.00
57594;BME280;43423;46.510;6.686;2023-04-23T04:31:02;95972.38;;;10.25;100.00
57594;BME280;43423;46.510;6.686;2023-04-23T04:33:30;95976.38;;;10.24;100.00
57594;BME280;43423;46.510;6.686;2023-04-23T04:35:56;95967.44;;;10.29;100.00
57594;BME280;43423;46.510;6.686;2023-04-23T04:38:21;95966.69;;;10.34;100.00
57594;BME280;43423;46.510;6.686;2023-04-23T04:40:47;95960.75;;;10.36;100.00
57594;BME280;43423;46.510;6.686;2023-04-23T04:43:13;95967.25;;;10.39;100.00
57594;BME280;43423;46.510;6.686;2023-04-23T04:45:41;95964.53;;;10.44;100.00
57594;BME280;43423;46.510;6.686;2023-04-23T04:48:07;95951.00;;;10.41;100.00
57594;BME280;43423;46.510;6.686;2023-04-23T04:50:33;95948.56;;;10.48;99.97
57594;BME280;43423;46.510;6.686;2023-04-23T04:52:59;95953.31;;;10.48;100.00
57594;BME280;43423;46.510;6.686;2023-04-23T04:55:24;95950.81;;;10.50;99.50
57594;BME280;43423;46.510;6.686;2023-04-23T04:57:52;95954.31;;;10.45;99.63
57594;BME280;43423;46.510;6.686;2023-04-23T05:00:23;95962.91;;;10.26;100.00
57594;BME280;43423;46.510;6.686;2023-04-23T05:02:52;95958.06;;;10.16;100.00
57594;BME280;43423;46.510;6.686;2023-04-23T05:05:19;95965.28;;;10.13;100.00
57594;BME280;43423;46.510;6.686;2023-04-23T05:07:45;95955.03;;;10.14;100.00
57594;BME280;43423;46.510;6.686;2023-04-23T05:10:11;95959.81;;;10.19;100.00
57594;BME280;43423;46.510;6.686;2023-04-23T05:12:37;95957.06;;;10.19;100.00
57594;BME280;43423;46.510;6.686;2023-04-23T05:15:10;95957.06;;;10.19;100.00
57594;BME280;43423;46.510;6.686;2023-04-23T05:17:38;95953.56;;;10.18;100.00
57594;BME280;43423;46.510;6.686;2023-04-23T05:20:04;95948.91;;;10.24;100.00
57594;BME280;43423;46.510;6.686;2023-04-23T05:22:30;95947.66;;;10.25;100.00
57594;BME280;43423;46.510;6.686;2023-04-23T05:24:56;95938.16;;;10.26;100.00
57594;BME280;43423;46.510;6.686;2023-04-23T05:27:21;95937.41;;;10.26;100.00
57594;BME280;43423;46.510;6.686;2023-04-23T05:29:47;95938.16;;;10.26;100.00
57594;BME280;43423;46.510;6.686;2023-04-23T05:32:12;95937.91;;;10.24;100.00
57594;BME280;43423;46.510;6.686;2023-04-23T05:34:38;95939.19;;;10.29;100.00
57594;BME280;43423;46.510;6.686;2023-04-23T05:37:04;95941.75;;;10.38;100.00
57594;BME280;43423;46.510;6.686;2023-04-23T05:39:31;95935.41;;;10.26;100.00
57594;BME280;43423;46.510;6.686;2023-04-23T05:41:56;95934.97;;;10.28;100.00
57594;BME280;43423;46.510;6.686;2023-04-23T05:44:23;95935.97;;;10.30;100.00
57594;BME280;43423;46.510;6.686;2023-04-23T05:46:48;95924.47;;;10.32;100.00
57594;BME280;43423;46.510;6.686;2023-04-23T05:49:14;95930.03;;;10.38;100.00
57594;BME280;43423;46.510;6.686;2023-04-23T05:51:40;95926.03;;;10.39;100.00
57594;BME280;43423;46.510;6.686;2023-04-23T05:54:06;95932.06;;;10.43;100.00
57594;BME280;43423;46.510;6.686;2023-04-23T05:56:31;95929.63;;;10.56;100.00
57594;BME280;43423;46.510;6.686;2023-04-23T05:58:57;95915.16;;;10.61;100.00
57594;BME280;43423;46.510;6.686;2023-04-23T06:01:23;95918.22;;;10.69;100.00
57594;BME280;43423;46.510;6.686;2023-04-23T06:03:49;95915.75;;;10.76;100.00
57594;BME280;43423;46.510;6.686;2023-04-23T06:06:14;95912.25;;;10.81;100.00
57594;BME280;43423;46.510;6.686;2023-04-23T06:08:40;95910.03;;;10.85;100.00
57594;BME280;43423;46.510;6.686;2023-04-23T06:11:06;95911.50;;;10.75;100.00
57594;BME280;43423;46.510;6.686;2023-04-23T06:13:32;95910.63;;;10.58;100.00
57594;BME280;43423;46.510;6.686;2023-04-23T06:15:58;95909.09;;;10.46;100.00
57594;BME280;43423;46.510;6.686;2023-04-23T06:18:24;95913.53;;;10.38;100.00
57594;BME280;43423;46.510;6.686;2023-04-23T06:20:49;95910.06;;;10.43;100.00
57594;BME280;43423;46.510;6.686;2023-04-23T06:23:16;95918.75;;;10.78;100.00
57594;BME280;43423;46.510;6.686;2023-04-23T06:25:42;95916.75;;;11.38;97.07
57594;BME280;43423;46.510;6.686;2023-04-23T06:28:08;95917.50;;;11.39;96.30
57594;BME280;43423;46.510;6.686;2023-04-23T06:30:33;95911.97;;;11.44;96.76
57594;BME280;43423;46.510;6.686;2023-04-23T06:33:00;95915.97;;;11.43;97.00
57594;BME280;43423;46.510;6.686;2023-04-23T06:35:26;95907.75;;;11.49;95.84
57594;BME280;43423;46.510;6.686;2023-04-23T06:37:52;95903.78;;;11.72;94.00
57594;BME280;43423;46.510;6.686;2023-04-23T06:40:17;95901.81;;;11.95;93.84
57594;BME280;43423;46.510;6.686;2023-04-23T06:42:43;95905.31;;;12.07;91.57
57594;BME280;43423;46.510;6.686;2023-04-23T06:45:10;95901.03;;;12.00;91.70
57594;BME280;43423;46.510;6.686;2023-04-23T06:47:36;95899.28;;;12.14;90.16
57594;BME280;43423;46.510;6.686;2023-04-23T06:50:02;95899.81;;;12.13;90.14
57594;BME280;43423;46.510;6.686;2023-04-23T06:52:28;95893.78;;;12.25;86.92
57594;BME280;43423;46.510;6.686;2023-04-23T06:54:53;95901.81;;;12.12;87.62
57594;BME280;43423;46.510;6.686;2023-04-23T06:57:19;95896.31;;;12.18;89.27
57594;BME280;43423;46.510;6.686;2023-04-23T06:59:46;95900.03;;;12.15;88.03
57594;BME280;43423;46.510;6.686;2023-04-23T07:02:12;95897.78;;;12.41;86.54
57594;BME280;43423;46.510;6.686;2023-04-23T07:04:37;95889.03;;;11.98;88.85
57594;BME280;43423;46.510;6.686;2023-04-23T07:07:03;95889.75;;;11.70;91.55
57594;BME280;43423;46.510;6.686;2023-04-23T07:09:29;95879.75;;;11.62;91.55
57594;BME280;43423;46.510;6.686;2023-04-23T07:11:55;95887.72;;;11.60;90.97
57594;BME280;43423;46.510;6.686;2023-04-23T07:14:21;95877.69;;;11.40;92.34
57594;BME280;43423;46.510;6.686;2023-04-23T07:16:47;95884.72;;;11.52;92.03
57594;BME280;43423;46.510;6.686;2023-04-23T07:19:12;95892.50;;;11.76;93.64
57594;BME280;43423;46.510;6.686;2023-04-23T07:21:39;95879.28;;;11.86;93.68
57594;BME280;43423;46.510;6.686;2023-04-23T07:24:05;95886.03;;;12.01;91.62
57594;BME280;43423;46.510;6.686;2023-04-23T07:26:34;95887.03;;;11.98;91.81
57594;BME280;43423;46.510;6.686;2023-04-23T07:29:00;95884.28;;;12.04;92.09
57594;BME280;43423;46.510;6.686;2023-04-23T07:31:26;95885.53;;;11.97;91.77
57594;BME280;43423;46.510;6.686;2023-04-23T07:33:54;95886.25;;;12.15;91.38
57594;BME280;43423;46.510;6.686;2023-04-23T07:36:21;95888.50;;;12.22;91.89
57594;BME280;43423;46.510;6.686;2023-04-23T07:38:46;95882.25;;;11.99;91.50
57594;BME280;43423;46.510;6.686;2023-04-23T07:41:12;95882.53;;;11.90;90.84
57594;BME280;43423;46.510;6.686;2023-04-23T07:43:39;95877.00;;;11.90;90.87
57594;BME280;43423;46.510;6.686;2023-04-23T07:46:06;95872.75;;;12.17;89.22
57594;BME280;43423;46.510;6.686;2023-04-23T07:48:32;95874.97;;;12.35;86.13
57594;BME280;43423;46.510;6.686;2023-04-23T07:51:00;95868.72;;;12.29;87.03
57594;BME280;43423;46.510;6.686;2023-04-23T07:53:25;95870.72;;;12.23;87.43
57594;BME280;43423;46.510;6.686;2023-04-23T07:55:54;95862.72;;;12.25;86.94
57594;BME280;43423;46.510;6.686;2023-04-23T07:58:21;95873.22;;;12.21;87.16
57594;BME280;43423;46.510;6.686;2023-04-23T08:00:47;95860.19;;;12.27;88.46
57594;BME280;43423;46.510;6.686;2023-04-23T08:03:12;95860.94;;;12.33;86.74
57594;BME280;43423;46.510;6.686;2023-04-23T08:05:40;95861.47;;;12.26;85.81
57594;BME280;43423;46.510;6.686;2023-04-23T08:08:06;95853.47;;;12.11;87.95
57594;BME280;43423;46.510;6.686;2023-04-23T08:10:36;95865.72;;;12.27;86.67
57594;BME280;43423;46.510;6.686;2023-04-23T08:13:01;95869.50;;;12.13;83.49
57594;BME280;43423;46.510;6.686;2023-04-23T08:15:27;95858.44;;;12.24;85.13
57594;BME280;43423;46.510;6.686;2023-04-23T08:17:53;95860.63;;;12.53;86.94
57594;BME280;43423;46.510;6.686;2023-04-23T08:20:19;95858.59;;;12.65;84.85
57594;BME280;43423;46.510;6.686;2023-04-23T08:22:44;95867.34;;;12.80;86.38
57594;BME280;43423;46.510;6.686;2023-04-23T08:25:10;95869.88;;;12.73;84.28
57594;BME280;43423;46.510;6.686;2023-04-23T08:27:37;95876.06;;;12.90;84.40
57594;BME280;43423;46.510;6.686;2023-04-23T08:30:04;95873.00;;;13.05;81.48
57594;BME280;43423;46.510;6.686;2023-04-23T08:32:30;95868.38;;;13.19;80.26
57594;BME280;43423;46.510;6.686;2023-04-23T08:34:56;95868.53;;;12.96;81.99
57594;BME280;43423;46.510;6.686;2023-04-23T08:37:23;95852.19;;;12.98;82.72
57594;BME280;43423;46.510;6.686;2023-04-23T08:39:49;95852.00;;;13.43;82.46
57594;BME280;43423;46.510;6.686;2023-04-23T08:42:29;95849.06;;;13.19;80.41
57594;BME280;43423;46.510;6.686;2023-04-23T08:45:02;95856.88;;;13.61;80.95
57594;BME280;43423;46.510;6.686;2023-04-23T08:47:29;95853.19;;;13.48;79.93
57594;BME280;43423;46.510;6.686;2023-04-23T08:49:57;95850.53;;;13.36;80.58
57594;BME280;43423;46.510;6.686;2023-04-23T08:52:24;95857.72;;;12.98;82.00
57594;BME280;43423;46.510;6.686;2023-04-23T08:54:58;95852.88;;;13.21;80.83
57594;BME280;43423;46.510;6.686;2023-04-23T08:57:25;95852.56;;;13.66;79.88
57594;BME280;43423;46.510;6.686;2023-04-23T08:59:51;95840.84;;;13.54;78.57
57594;BME280;43423;46.510;6.686;2023-04-23T09:02:17;95837.31;;;13.59;79.28
57594;BME280;43423;46.510;6.686;2023-04-23T09:04:44;95854.00;;;13.78;77.93
57594;BME280;43423;46.510;6.686;2023-04-23T09:07:09;95844.47;;;13.38;79.16
57594;BME280;43423;46.510;6.686;2023-04-23T09:09:37;95850.47;;;13.78;76.97
57594;BME280;43423;46.510;6.686;2023-04-23T09:12:06;95849.47;;;14.05;78.03
57594;BME280;43423;46.510;6.686;2023-04-23T09:14:34;95842.28;;;13.96;77.86
57594;BME280;43423;46.510;6.686;2023-04-23T09:17:01;95843.13;;;13.86;79.20
57594;BME280;43423;46.510;6.686;2023-04-23T09:19:27;95831.00;;;13.94;79.13
57594;BME280;43423;46.510;6.686;2023-04-23T09:21:53;95831.84;;;13.84;75.65
57594;BME280;43423;46.510;6.686;2023-04-23T09:24:24;95824.19;;;13.65;75.42
57594;BME280;43423;46.510;6.686;2023-04-23T09:26:51;95831.09;;;13.83;77.70
57594;BME280;43423;46.510;6.686;2023-04-23T09:29:21;95833.81;;;14.13;75.35
57594;BME280;43423;46.510;6.686;2023-04-23T09:31:57;95836.63;;;14.38;72.87
57594;BME280;43423;46.510;6.686;2023-04-23T09:34:26;95835.34;;;14.14;74.11
57594;BME280;43423;46.510;6.686;2023-04-23T09:36:52;95828.63;;;14.59;76.42
57594;BME280;43423;46.510;6.686;2023-04-23T09:39:21;95819.03;;;14.60;69.15
57594;BME280;43423;46.510;6.686;2023-04-23T09:41:47;95822.66;;;14.73;70.88
57594;BME280;43423;46.510;6.686;2023-04-23T09:44:20;95822.41;;;14.96;68.24
57594;BME280;43423;46.510;6.686;2023-04-23T09:46:46;95820.91;;;15.32;68.19
57594;BME280;43423;46.510;6.686;2023-04-23T09:49:13;95817.88;;;15.49;67.84
57594;BME280;43423;46.510;6.686;2023-04-23T09:51:46;95817.28;;;15.38;69.00
57594;BME280;43423;46.510;6.686;2023-04-23T09:54:20;95821.50;;;15.06;68.58
57594;BME280;43423;46.510;6.686;2023-04-23T09:56:51;95816.91;;;14.90;69.99
57594;BME280;43423;46.510;6.686;2023-04-23T09:59:28;95814.38;;;14.73;69.81
57594;BME280;43423;46.510;6.686;2023-04-23T10:01:54;95816.69;;;14.88;69.44
57594;BME280;43423;46.510;6.686;2023-04-23T10:04:21;95817.81;;;14.79;72.40
57594;BME280;43423;46.510;6.686;2023-04-23T10:07:02;95803.16;;;15.22;69.54
57594;BME280;43423;46.510;6.686;2023-04-23T10:09:29;95809.16;;;15.26;70.76
57594;BME280;43423;46.510;6.686;2023-04-23T10:11:57;95806.88;;;14.68;67.69
57594;BME280;43423;46.510;6.686;2023-04-23T10:14:25;95804.25;;;14.57;70.58
57594;BME280;43423;46.510;6.686;2023-04-23T10:16:52;95802.91;;;14.64;70.98
57594;BME280;43423;46.510;6.686;2023-04-23T10:19:22;95808.56;;;14.96;69.55
57594;BME280;43423;46.510;6.686;2023-04-23T10:21:56;95794.53;;;15.07;70.91
57594;BME280;43423;46.510;6.686;2023-04-23T10:24:26;95792.66;;;14.59;69.75
57594;BME280;43423;46.510;6.686;2023-04-23T10:26:56;95794.69;;;14.77;69.46
57594;BME280;43423;46.510;6.686;2023-04-23T10:29:27;95787.84;;;15.02;71.68
57594;BME280;43423;46.510;6.686;2023-04-23T10:31:55;95790.44;;;15.14;68.73
57594;BME280;43423;46.510;6.686;2023-04-23T10:34:24;95796.66;;;15.71;67.68
57594;BME280;43423;46.510;6.686;2023-04-23T10:36:50;95797.06;;;16.07;69.37
57594;BME280;43423;46.510;6.686;2023-04-23T10:39:17;95792.59;;;15.72;65.93
57594;BME280;43423;46.510;6.686;2023-04-23T10:41:45;95785.31;;;16.01;65.52
57594;BME280;43423;46.510;6.686;2023-04-23T10:44:12;95793.88;;;16.16;67.38
57594;BME280;43423;46.510;6.686;2023-04-23T10:46:38;95779.56;;;16.25;64.99
57594;BME280;43423;46.510;6.686;2023-04-23T10:49:10;95786.94;;;16.23;63.18
57594;BME280;43423;46.510;6.686;2023-04-23T10:51:41;95784.69;;;16.08;64.53
57594;BME280;43423;46.510;6.686;2023-04-23T10:54:13;95771.03;;;16.10;64.86
57594;BME280;43423;46.510;6.686;2023-04-23T10:56:42;95763.31;;;15.76;65.49
57594;BME280;43423;46.510;6.686;2023-04-23T10:59:18;95768.97;;;15.84;65.19
57594;BME280;43423;46.510;6.686;2023-04-23T11:01:49;95766.13;;;15.89;64.81
57594;BME280;43423;46.510;6.686;2023-04-23T11:04:19;95760.06;;;16.04;64.33
57594;BME280;43423;46.510;6.686;2023-04-23T11:06:50;95757.34;;;15.72;63.86
57594;BME280;43423;46.510;6.686;2023-04-23T11:09:27;95756.69;;;15.66;65.66
57594;BME280;43423;46.510;6.686;2023-04-23T11:11:57;95752.13;;;15.50;65.32
57594;BME280;43423;46.510;6.686;2023-04-23T11:14:41;95741.22;;;15.39;65.66
57594;BME280;43423;46.510;6.686;2023-04-23T11:17:13;95735.59;;;15.12;67.30
57594;BME280;43423;46.510;6.686;2023-04-23T11:19:43;95730.50;;;14.97;67.95
57594;BME280;43423;46.510;6.686;2023-04-23T11:22:33;95734.22;;;15.19;66.47
57594;BME280;43423;46.510;6.686;2023-04-23T11:25:00;95735.97;;;15.03;66.86
57594;BME280;43423;46.510;6.686;2023-04-23T11:27:28;95730.31;;;14.95;67.29
57594;BME280;43423;46.510;6.686;2023-04-23T11:29:54;95727.88;;;15.05;67.43
57594;BME280;43423;46.510;6.686;2023-04-23T11:32:20;95730.59;;;14.92;66.71
57594;BME280;43423;46.510;6.686;2023-04-23T11:34:47;95725.19;;;14.99;66.79
57594;BME280;43423;46.510;6.686;2023-04-23T11:37:16;95729.38;;;15.06;66.58
57594;BME280;43423;46.510;6.686;2023-04-23T11:39:43;95720.47;;;15.13;64.70
57594;BME280;43423;46.510;6.686;2023-04-23T11:42:16;95731.41;;;15.38;65.53
57594;BME280;43423;46.510;6.686;2023-04-23T11:44:45;95738.03;;;15.48;65.49
57594;BME280;43423;46.510;6.686;2023-04-23T11:47:13;95729.53;;;15.46;65.30
57594;BME280;43423;46.510;6.686;2023-04-23T11:49:41;95720.50;;;15.58;65.64
57594;BME280;43423;46.510;6.686;2023-04-23T11:52:07;95726.84;;;15.72;64.34
57594;BME280;43423;46.510;6.686;2023-04-23T11:54:33;95710.66;;;15.89;64.41
57594;BME280;43423;46.510;6.686;2023-04-23T11:56:59;95709.28;;;16.09;61.67
57594;BME280;43423;46.510;6.686;2023-04-23T11:59:27;95707.47;;;16.12;60.46
57594;BME280;43423;46.510;6.686;2023-04-23T12:01:54;95700.84;;;16.28;58.90
57594;BME280;43423;46.510;6.686;2023-04-23T12:04:21;95702.44;;;16.24;59.18
57594;BME280;43423;46.510;6.686;2023-04-23T12:06:48;95708.84;;;16.18;57.84
57594;BME280;43423;46.510;6.686;2023-04-23T12:09:16;95703.50;;;16.34;57.53
57594;BME280;43423;46.510;6.686;2023-04-23T12:11:43;95707.44;;;16.52;56.85
57594;BME280;43423;46.510;6.686;2023-04-23T12:14:10;95699.97;;;16.60;56.11
57594;BME280;43423;46.510;6.686;2023-04-23T12:16:44;95706.53;;;16.83;56.04
57594;BME280;43423;46.510;6.686;2023-04-23T12:19:20;95707.56;;;16.93;53.80
57594;BME280;43423;46.510;6.686;2023-04-23T12:22:05;95702.09;;;17.01;54.91
57594;BME280;43423;46.510;6.686;2023-04-23T12:24:46;95714.34;;;17.06;52.48
57594;BME280;43423;46.510;6.686;2023-04-23T12:27:15;95705.63;;;17.01;53.20
57594;BME280;43423;46.510;6.686;2023-04-23T12:29:44;95701.63;;;17.10;54.77
57594;BME280;43423;46.510;6.686;2023-04-23T12:32:12;95696.31;;;16.78;53.17
57594;BME280;43423;46.510;6.686;2023-04-23T12:34:51;95685.38;;;16.93;56.34
57594;BME280;43423;46.510;6.686;2023-04-23T12:37:17;95686.66;;;16.92;54.91
57594;BME280;43423;46.510;6.686;2023-04-23T12:39:43;95676.66;;;16.76;55.37
57594;BME280;43423;46.510;6.686;2023-04-23T12:42:08;95676.88;;;16.65;55.48
57594;BME280;43423;46.510;6.686;2023-04-23T12:44:36;95683.31;;;16.60;54.76
57594;BME280;43423;46.510;6.686;2023-04-23T12:47:05;95682.41;;;16.65;53.67
57594;BME280;43423;46.510;6.686;2023-04-23T12:49:34;95682.16;;;16.89;55.34
57594;BME280;43423;46.510;6.686;2023-04-23T12:52:01;95680.44;;;16.99;54.01
57594;BME280;43423;46.510;6.686;2023-04-23T12:54:30;95683.66;;;16.90;53.44